createdAt,value
2023-05-05T00:00:02.598Z,1016.58
2023-05-05T00:01:02.614Z,1016.62
2023-05-05T00:02:02.682Z,1016.61
2023-05-05T00:03:02.813Z,1016.60
2023-05-05T00:04:02.691Z,1016.60
2023-05-05T00:05:02.611Z,1016.60
2023-05-05T00:06:02.667Z,1016.59
2023-05-05T00:07:02.618Z,1016.59
2023-05-05T00:08:02.605Z,1016.59
2023-05-05T00:09:02.612Z,1016.58
2023-05-05T00:10:02.602Z,1016.57
2023-05-05T00:11:02.601Z,1016.52
2023-05-05T00:12:02.599Z,1016.57
2023-05-05T00:13:02.654Z,1016.53
2023-05-05T00:14:02.599Z,1016.55
2023-05-05T00:15:02.606Z,1016.57
2023-05-05T00:16:02.617Z,1016.60
2023-05-05T00:17:02.664Z,1016.56
2023-05-05T00:18:02.655Z,1016.59
2023-05-05T00:19:02.616Z,1016.53
2023-05-05T00:20:02.627Z,1016.60
2023-05-05T00:21:02.624Z,1016.59
2023-05-05T00:22:02.608Z,1016.57
2023-05-05T00:23:02.624Z,1016.57
2023-05-05T00:24:02.606Z,1016.59
2023-05-05T00:25:02.602Z,1016.59
2023-05-05T00:26:02.668Z,1016.56
2023-05-05T00:27:02.611Z,1016.57
2023-05-05T00:28:02.610Z,1016.57
2023-05-05T00:29:02.608Z,1016.57
2023-05-05T00:30:02.599Z,1016.52
2023-05-05T00:31:02.683Z,1016.51
2023-05-05T00:32:02.605Z,1016.48
2023-05-05T00:33:02.706Z,1016.53
2023-05-05T00:34:02.606Z,1016.50
2023-05-05T00:35:02.608Z,1016.50
2023-05-05T00:36:02.640Z,1016.47
2023-05-05T00:37:02.613Z,1016.50
2023-05-05T00:38:02.617Z,1016.45
2023-05-05T00:39:02.617Z,1016.48
2023-05-05T00:40:02.806Z,1016.43
2023-05-05T00:41:02.611Z,1016.42
2023-05-05T00:42:02.604Z,1016.44
2023-05-05T00:43:02.627Z,1016.44
2023-05-05T00:44:02.610Z,1016.40
2023-05-05T00:45:02.632Z,1016.40
2023-05-05T00:46:02.636Z,1016.39
2023-05-05T00:47:02.607Z,1016.42
2023-05-05T00:48:02.685Z,1016.39
2023-05-05T00:49:02.666Z,1016.33
2023-05-05T00:50:02.606Z,1016.38
2023-05-05T00:51:02.632Z,1016.37
2023-05-05T00:52:02.646Z,1016.37
2023-05-05T00:53:02.609Z,1016.36
2023-05-05T00:54:02.606Z,1016.34
2023-05-05T00:55:02.616Z,1016.35
2023-05-05T00:56:02.614Z,1016.31
2023-05-05T00:57:02.616Z,1016.36
2023-05-05T00:58:02.611Z,1016.33
2023-05-05T00:59:02.606Z,1016.31
2023-05-05T01:00:02.613Z,1016.27
2023-05-05T01:01:02.615Z,1016.26
2023-05-05T01:02:02.729Z,1016.23
2023-05-05T01:03:02.666Z,1016.30
2023-05-05T01:04:02.707Z,1016.25
2023-05-05T01:05:02.619Z,1016.26
2023-05-05T01:06:02.604Z,1016.27
2023-05-05T01:07:02.607Z,1016.24
2023-05-05T01:08:02.630Z,1016.26
2023-05-05T01:09:02.603Z,1016.30
2023-05-05T01:10:18.150Z,1016.28
2023-05-05T01:11:02.605Z,1016.26
2023-05-05T01:12:02.619Z,1016.27
2023-05-05T01:13:02.630Z,1016.31
2023-05-05T01:14:02.606Z,1016.31
2023-05-05T01:15:02.619Z,1016.26
2023-05-05T01:16:02.631Z,1016.28
2023-05-05T01:17:02.602Z,1016.26
2023-05-05T01:18:02.637Z,1016.29
2023-05-05T01:19:02.617Z,1016.27
2023-05-05T01:20:02.608Z,1016.25
2023-05-05T01:21:02.602Z,1016.27
2023-05-05T01:22:02.608Z,1016.26
2023-05-05T01:23:02.600Z,1016.27
2023-05-05T01:24:02.632Z,1016.22
2023-05-05T01:25:02.602Z,1016.21
2023-05-05T01:26:02.624Z,1016.24
2023-05-05T01:27:02.602Z,1016.22
2023-05-05T01:28:02.604Z,1016.20
2023-05-05T01:29:02.656Z,1016.21
2023-05-05T01:30:02.612Z,1016.17
2023-05-05T01:31:02.598Z,1016.18
2023-05-05T01:32:02.650Z,1016.21
2023-05-05T01:33:02.606Z,1016.21
2023-05-05T01:34:02.627Z,1016.16
2023-05-05T01:35:02.598Z,1016.16
2023-05-05T01:36:02.614Z,1016.16
2023-05-05T01:37:02.604Z,1016.15
2023-05-05T01:38:02.602Z,1016.19
2023-05-05T01:39:02.636Z,1016.17
2023-05-05T01:40:02.612Z,1016.20
2023-05-05T01:41:02.609Z,1016.22
2023-05-05T01:42:02.594Z,1016.18
2023-05-05T01:43:02.616Z,1016.18
2023-05-05T01:44:02.599Z,1016.16
2023-05-05T01:45:02.599Z,1016.22
2023-05-05T01:46:02.631Z,1016.16
2023-05-05T01:47:02.594Z,1016.14
2023-05-05T01:48:02.616Z,1016.16
2023-05-05T01:49:02.620Z,1016.19
2023-05-05T01:50:02.592Z,1016.17
2023-05-05T01:51:02.592Z,1016.21
2023-05-05T01:52:02.599Z,1016.21
2023-05-05T01:53:02.598Z,1016.16
2023-05-05T01:54:02.596Z,1016.20
2023-05-05T01:55:02.592Z,1016.18
2023-05-05T01:56:02.618Z,1016.16
2023-05-05T01:57:02.588Z,1016.19
2023-05-05T01:58:02.592Z,1016.18
2023-05-05T01:59:02.592Z,1016.21
2023-05-05T02:00:02.604Z,1016.21
2023-05-05T02:01:02.641Z,1016.17
2023-05-05T02:02:02.658Z,1016.18
2023-05-05T02:03:02.695Z,1016.17
2023-05-05T02:04:02.593Z,1016.15
2023-05-05T02:05:02.585Z,1016.15
2023-05-05T02:06:02.592Z,1016.18
2023-05-05T02:07:02.588Z,1016.18
2023-05-05T02:08:02.587Z,1016.12
2023-05-05T02:09:02.581Z,1016.12
2023-05-05T02:10:02.593Z,1016.11
2023-05-05T02:11:02.592Z,1016.13
2023-05-05T02:12:02.606Z,1016.08
2023-05-05T02:13:02.634Z,1016.12
2023-05-05T02:14:02.644Z,1016.07
2023-05-05T02:15:02.593Z,1016.13
2023-05-05T02:16:02.656Z,1016.13
2023-05-05T02:17:02.591Z,1016.12
2023-05-05T02:18:02.647Z,1016.10
2023-05-05T02:19:02.596Z,1016.15
2023-05-05T02:20:02.591Z,1016.13
2023-05-05T02:21:02.583Z,1016.07
2023-05-05T02:22:02.588Z,1016.12
2023-05-05T02:23:02.587Z,1016.12
2023-05-05T02:24:02.645Z,1016.11
2023-05-05T02:25:02.584Z,1016.11
2023-05-05T02:26:02.593Z,1016.12
2023-05-05T02:27:02.586Z,1016.13
2023-05-05T02:28:02.614Z,1016.09
2023-05-05T02:29:02.589Z,1016.10
2023-05-05T02:30:02.583Z,1016.10
2023-05-05T02:31:02.613Z,1016.09
2023-05-05T02:32:02.590Z,1016.04
2023-05-05T02:33:02.638Z,1016.06
2023-05-05T02:34:02.610Z,1016.05
2023-05-05T02:35:02.592Z,1016.05
2023-05-05T02:36:02.589Z,1016.08
2023-05-05T02:37:02.576Z,1016.04
2023-05-05T02:38:02.812Z,1016.08
2023-05-05T02:39:02.583Z,1016.09
2023-05-05T02:40:02.596Z,1016.09
2023-05-05T02:41:02.581Z,1016.09
2023-05-05T02:43:10.233Z,1016.07
2023-05-05T02:44:10.167Z,1016.08
2023-05-05T02:45:10.167Z,1016.07
2023-05-05T02:46:10.193Z,1016.05
2023-05-05T02:47:10.171Z,1016.07
2023-05-05T02:48:10.170Z,1016.03
2023-05-05T02:49:10.163Z,1016.03
2023-05-05T02:50:10.469Z,1016.02
2023-05-05T02:51:10.176Z,1016.03
2023-05-05T02:52:10.169Z,1016.03
2023-05-05T02:53:10.167Z,1016.07
2023-05-05T02:54:10.168Z,1016.07
2023-05-05T02:55:10.159Z,1016.12
2023-05-05T02:56:10.164Z,1016.10
2023-05-05T02:57:10.161Z,1016.14
2023-05-05T02:58:10.160Z,1016.13
2023-05-05T02:59:10.218Z,1016.12
2023-05-05T03:00:10.286Z,1016.13
2023-05-05T03:01:10.178Z,1016.11
2023-05-05T03:02:10.179Z,1016.09
2023-05-05T03:03:10.267Z,1016.06
2023-05-05T03:04:10.161Z,1016.07
2023-05-05T03:05:10.170Z,1016.07
2023-05-05T03:06:10.156Z,1016.01
2023-05-05T03:07:10.168Z,1016.03
2023-05-05T03:08:10.169Z,1016.02
2023-05-05T03:09:10.153Z,1016.09
2023-05-05T03:10:10.349Z,1016.05
2023-05-05T03:11:10.193Z,1016.07
2023-05-05T03:12:10.152Z,1016.07
2023-05-05T03:13:10.201Z,1016.06
2023-05-05T03:14:10.158Z,1016.11
2023-05-05T03:15:10.192Z,1016.05
2023-05-05T03:16:10.197Z,1016.03
2023-05-05T03:17:10.154Z,1016.05
2023-05-05T03:18:10.154Z,1016.01
2023-05-05T03:19:10.147Z,1016.00
2023-05-05T03:20:10.164Z,1016.03
2023-05-05T03:21:10.153Z,1016.06
2023-05-05T03:22:10.142Z,1016.03
2023-05-05T03:23:10.145Z,1016.00
2023-05-05T03:24:10.147Z,1016.07
2023-05-05T03:25:10.141Z,1015.99
2023-05-05T03:26:10.143Z,1016.02
2023-05-05T03:27:10.155Z,1016.03
2023-05-05T03:28:10.140Z,1015.99
2023-05-05T03:29:10.156Z,1015.98
2023-05-05T03:30:10.283Z,1015.98
2023-05-05T03:31:10.251Z,1015.99
2023-05-05T03:32:10.160Z,1016.06
2023-05-05T03:33:10.145Z,1016.04
2023-05-05T03:34:10.137Z,1016.01
2023-05-05T03:35:10.136Z,1016.01
2023-05-05T03:36:10.136Z,1016.06
2023-05-05T03:37:10.134Z,1016.06
2023-05-05T03:38:10.130Z,1016.06
2023-05-05T03:39:10.130Z,1016.04
2023-05-05T03:40:10.245Z,1016.07
2023-05-05T03:41:10.127Z,1016.04
2023-05-05T03:42:10.142Z,1016.11
2023-05-05T03:43:10.131Z,1016.06
2023-05-05T03:44:10.128Z,1016.11
2023-05-05T03:45:10.125Z,1016.12
2023-05-05T03:46:10.173Z,1016.15
2023-05-05T03:47:10.145Z,1016.15
2023-05-05T03:48:10.180Z,1016.20
2023-05-05T03:49:10.129Z,1016.20
2023-05-05T03:50:10.252Z,1016.21
2023-05-05T03:51:10.128Z,1016.19
2023-05-05T03:52:10.132Z,1016.21
2023-05-05T03:53:10.117Z,1016.11
2023-05-05T03:54:10.123Z,1016.17
2023-05-05T03:55:10.120Z,1016.17
2023-05-05T03:56:10.121Z,1016.14
2023-05-05T03:57:10.120Z,1016.10
2023-05-05T03:58:10.118Z,1016.09
2023-05-05T03:59:10.117Z,1016.07
2023-05-05T04:00:10.117Z,1016.10
2023-05-05T04:01:10.130Z,1016.13
2023-05-05T04:02:10.135Z,1016.14
2023-05-05T04:03:10.466Z,1016.11
2023-05-05T04:04:10.136Z,1016.10
2023-05-05T04:05:10.112Z,1016.12
2023-05-05T04:06:10.121Z,1016.12
2023-05-05T04:07:10.112Z,1016.10
2023-05-05T04:08:10.443Z,1016.08
2023-05-05T04:09:10.117Z,1016.07
2023-05-05T04:10:10.291Z,1016.11
2023-05-05T04:11:10.116Z,1016.07
2023-05-05T04:12:10.119Z,1016.06
2023-05-05T04:13:10.183Z,1016.07
2023-05-05T04:14:10.114Z,1016.09
2023-05-05T04:15:10.115Z,1016.17
2023-05-05T04:16:10.154Z,1016.11
2023-05-05T04:17:10.107Z,1016.09
2023-05-05T04:18:10.142Z,1016.11
2023-05-05T04:19:10.128Z,1016.13
2023-05-05T04:20:10.327Z,1016.13
2023-05-05T04:21:10.104Z,1016.10
2023-05-05T04:22:10.104Z,1016.05
2023-05-05T04:23:10.107Z,1016.12
2023-05-05T04:24:10.110Z,1016.05
2023-05-05T04:25:10.102Z,1016.07
2023-05-05T04:26:10.106Z,1016.09
2023-05-05T04:27:10.095Z,1016.06
2023-05-05T04:28:10.119Z,1016.12
2023-05-05T04:29:10.091Z,1016.11
2023-05-05T04:30:10.214Z,1016.12
2023-05-05T04:31:10.148Z,1016.12
2023-05-05T04:32:10.108Z,1016.14
2023-05-05T04:33:10.128Z,1016.17
2023-05-05T04:34:10.098Z,1016.12
2023-05-05T04:35:10.113Z,1016.11
2023-05-05T04:36:10.092Z,1016.13
2023-05-05T04:37:10.096Z,1016.13
2023-05-05T04:38:10.096Z,1016.14
2023-05-05T04:39:10.086Z,1016.14
2023-05-05T04:40:10.333Z,1016.17
2023-05-05T04:41:10.092Z,1016.20
2023-05-05T04:42:10.087Z,1016.20
2023-05-05T04:43:10.092Z,1016.24
2023-05-05T04:44:10.087Z,1016.29
2023-05-05T04:45:10.114Z,1016.27
2023-05-05T04:46:10.115Z,1016.27
2023-05-05T04:48:10.244Z,1016.30
2023-05-05T04:49:10.097Z,1016.30
2023-05-05T04:50:10.347Z,1016.33
2023-05-05T04:51:10.106Z,1016.34
2023-05-05T04:52:10.079Z,1016.37
2023-05-05T04:53:10.073Z,1016.39
2023-05-05T04:54:10.079Z,1016.40
2023-05-05T04:55:10.073Z,1016.43
2023-05-05T04:56:10.085Z,1016.44
2023-05-05T04:57:10.072Z,1016.41
2023-05-05T04:58:10.073Z,1016.44
2023-05-05T04:59:10.073Z,1016.39
2023-05-05T05:00:10.296Z,1016.39
2023-05-05T05:01:10.093Z,1016.42
2023-05-05T05:02:10.138Z,1016.44
2023-05-05T05:03:10.126Z,1016.45
2023-05-05T05:04:10.071Z,1016.49
2023-05-05T05:05:10.069Z,1016.46
2023-05-05T05:06:10.065Z,1016.42
2023-05-05T05:07:10.083Z,1016.47
2023-05-05T05:08:10.068Z,1016.49
2023-05-05T05:09:10.060Z,1016.47
2023-05-05T05:10:10.268Z,1016.48
2023-05-05T05:11:10.064Z,1016.51
2023-05-05T05:12:10.069Z,1016.53
2023-05-05T05:13:12.379Z,1016.53
2023-05-05T05:14:10.062Z,1016.56
2023-05-05T05:15:10.050Z,1016.58
2023-05-05T05:16:10.099Z,1016.52
2023-05-05T05:17:10.052Z,1016.53
2023-05-05T05:18:10.058Z,1016.51
2023-05-05T05:19:10.053Z,1016.53
2023-05-05T05:20:10.327Z,1016.51
2023-05-05T05:21:10.056Z,1016.61
2023-05-05T05:22:10.076Z,1016.55
2023-05-05T05:23:10.093Z,1016.61
2023-05-05T05:24:10.055Z,1016.59
2023-05-05T05:25:10.043Z,1016.56
2023-05-05T05:26:10.060Z,1016.62
2023-05-05T05:27:10.394Z,1016.56
2023-05-05T05:28:11.075Z,1016.64
2023-05-05T05:29:10.061Z,1016.63
2023-05-05T05:30:10.259Z,1016.63
2023-05-05T05:31:10.038Z,1016.63
2023-05-05T05:32:10.139Z,1016.62
2023-05-05T05:33:10.052Z,1016.64
2023-05-05T05:34:12.581Z,1016.67
2023-05-05T05:35:10.039Z,1016.61
2023-05-05T05:36:10.085Z,1016.60
2023-05-05T05:37:10.358Z,1016.62
2023-05-05T05:38:10.056Z,1016.62
2023-05-05T05:39:10.061Z,1016.60
2023-05-05T05:40:10.264Z,1016.61
2023-05-05T05:41:10.026Z,1016.67
2023-05-05T05:42:10.030Z,1016.66
2023-05-05T05:43:10.030Z,1016.65
2023-05-05T05:44:10.030Z,1016.72
2023-05-05T05:45:10.031Z,1016.66
2023-05-05T05:46:10.062Z,1016.66
2023-05-05T05:47:10.026Z,1016.75
2023-05-05T05:48:10.064Z,1016.70
2023-05-05T05:49:10.044Z,1016.70
2023-05-05T05:50:10.303Z,1016.67
2023-05-05T05:51:10.083Z,1016.71
2023-05-05T05:52:10.029Z,1016.68
2023-05-05T05:53:10.022Z,1016.71
2023-05-05T05:54:10.026Z,1016.70
2023-05-05T05:55:10.062Z,1016.72
2023-05-05T05:56:10.028Z,1016.71
2023-05-05T05:57:10.018Z,1016.73
2023-05-05T05:58:10.057Z,1016.72
2023-05-05T05:59:10.044Z,1016.70
2023-05-05T06:00:10.183Z,1016.68
2023-05-05T06:01:10.020Z,1016.76
2023-05-05T06:02:10.042Z,1016.74
2023-05-05T06:03:10.226Z,1016.74
2023-05-05T06:04:10.042Z,1016.74
2023-05-05T06:05:10.021Z,1016.74
2023-05-05T06:06:10.027Z,1016.73
2023-05-05T06:07:10.004Z,1016.77
2023-05-05T06:08:10.024Z,1016.75
2023-05-05T06:09:10.017Z,1016.77
2023-05-05T06:10:25.654Z,1016.72
2023-05-05T06:11:10.033Z,1016.76
2023-05-05T06:12:10.012Z,1016.74
2023-05-05T06:13:10.034Z,1016.72
2023-05-05T06:14:10.018Z,1016.74
2023-05-05T06:15:10.007Z,1016.68
2023-05-05T06:16:10.060Z,1016.68
2023-05-05T06:17:10.009Z,1016.69
2023-05-05T06:18:10.240Z,1016.70
2023-05-05T06:19:10.008Z,1016.74
2023-05-05T06:20:10.079Z,1016.79
2023-05-05T06:21:10.005Z,1016.81
2023-05-05T06:22:10.006Z,1016.88
2023-05-05T06:23:10.024Z,1016.93
2023-05-05T06:24:10.001Z,1016.92
2023-05-05T06:25:10.004Z,1016.93
2023-05-05T06:26:10.005Z,1016.92
2023-05-05T06:27:10.022Z,1016.89
2023-05-05T06:28:10.014Z,1016.96
2023-05-05T06:29:12.222Z,1016.92
2023-05-05T06:30:10.252Z,1016.95
2023-05-05T06:31:10.009Z,1016.97
2023-05-05T06:32:10.008Z,1016.96
2023-05-05T06:33:10.023Z,1016.98
2023-05-05T06:34:10.002Z,1016.95
2023-05-05T06:35:10.000Z,1016.89
2023-05-05T06:36:10.034Z,1016.92
2023-05-05T06:37:09.997Z,1016.87
2023-05-05T06:38:10.010Z,1016.87
2023-05-05T06:39:09.999Z,1016.87
2023-05-05T06:40:10.187Z,1016.86
2023-05-05T06:41:10.002Z,1016.83
2023-05-05T06:42:10.002Z,1016.91
2023-05-05T06:43:10.029Z,1016.93
2023-05-05T06:44:10.002Z,1016.96
2023-05-05T06:45:09.998Z,1016.96
2023-05-05T06:46:10.007Z,1016.97
2023-05-05T06:47:10.003Z,1016.96
2023-05-05T06:48:10.012Z,1016.88
2023-05-05T06:49:10.000Z,1016.85
2023-05-05T06:50:10.271Z,1016.89
2023-05-05T06:51:09.998Z,1016.95
2023-05-05T06:52:10.001Z,1017.04
2023-05-05T06:53:09.997Z,1017.06
2023-05-05T06:54:10.016Z,1017.03
2023-05-05T06:55:10.000Z,1017.04
2023-05-05T06:56:10.018Z,1017.09
2023-05-05T06:57:10.020Z,1017.07
2023-05-05T06:58:09.997Z,1017.01
2023-05-05T06:59:10.115Z,1016.97
2023-05-05T07:00:10.080Z,1016.93
2023-05-05T07:01:10.077Z,1016.95
2023-05-05T07:02:10.006Z,1016.98
2023-05-05T07:03:10.032Z,1016.98
2023-05-05T07:04:10.054Z,1017.01
2023-05-05T07:05:10.011Z,1017.01
2023-05-05T07:06:10.004Z,1016.99
2023-05-05T07:07:10.014Z,1016.93
2023-05-05T07:08:10.093Z,1016.97
2023-05-05T07:09:10.028Z,1016.95
2023-05-05T07:10:10.209Z,1017.02
2023-05-05T07:11:10.012Z,1017.10
2023-05-05T07:12:10.017Z,1017.10
2023-05-05T07:13:10.036Z,1017.14
2023-05-05T07:14:10.014Z,1017.17
2023-05-05T07:15:26.150Z,1017.09
2023-05-05T07:16:10.062Z,1017.11
2023-05-05T07:17:10.008Z,1017.11
2023-05-05T07:18:10.075Z,1017.15
2023-05-05T07:19:10.014Z,1017.17
2023-05-05T07:20:10.186Z,1017.24
2023-05-05T07:21:10.014Z,1017.26
2023-05-05T07:22:10.023Z,1017.32
2023-05-05T07:23:10.019Z,1017.29
2023-05-05T07:24:10.031Z,1017.38
2023-05-05T07:25:10.012Z,1017.46
2023-05-05T07:26:10.017Z,1017.95
2023-05-05T07:27:10.018Z,1020.15
2023-05-05T07:28:10.018Z,1022.61
2023-05-05T07:29:10.021Z,1024.81
2023-05-05T07:30:14.051Z,1026.23
2023-05-05T07:31:10.109Z,1023.35
2023-05-05T07:32:10.077Z,1020.59
2023-05-05T07:33:10.121Z,1019.77
2023-05-05T07:34:10.019Z,1020.05
2023-05-05T07:35:10.032Z,1021.50
2023-05-05T07:36:10.019Z,1023.19
2023-05-05T07:37:10.033Z,1024.55
2023-05-05T07:38:10.870Z,1025.74
2023-05-05T07:39:10.031Z,1027.15
2023-05-05T07:40:10.502Z,1029.22
2023-05-05T07:41:10.030Z,1031.55
2023-05-05T07:42:10.024Z,1033.09
2023-05-05T07:43:10.026Z,1034.25
2023-05-05T07:44:10.030Z,1033.17
2023-05-05T07:45:10.036Z,1032.04
2023-05-05T07:46:10.065Z,1033.02
2023-05-05T07:47:10.130Z,1032.84
2023-05-05T07:48:10.069Z,1031.29
2023-05-05T07:49:10.041Z,1032.29
2023-05-05T07:50:10.321Z,1031.59
2023-05-05T07:51:10.049Z,1029.43
2023-05-05T07:52:10.113Z,1029.66
2023-05-05T07:53:14.626Z,1029.97
2023-05-05T07:54:10.049Z,1031.22
2023-05-05T07:56:02.850Z,1030.64
2023-05-05T07:57:02.863Z,1031.97
2023-05-05T07:58:02.873Z,1029.97
2023-05-05T07:59:02.861Z,1030.85
2023-05-05T08:00:02.856Z,1031.65
2023-05-05T08:01:02.872Z,1032.31
2023-05-05T08:02:02.870Z,1033.62
2023-05-05T08:03:03.010Z,1034.03
2023-05-05T08:04:02.996Z,1034.34
2023-05-05T08:05:02.877Z,1033.04
2023-05-05T08:06:02.873Z,1032.47
2023-05-05T08:07:02.895Z,1031.77
2023-05-05T08:08:02.885Z,1030.93
2023-05-05T08:09:02.901Z,1030.48
2023-05-05T08:10:02.894Z,1029.80
2023-05-05T08:11:02.902Z,1029.03
2023-05-05T08:12:02.903Z,1028.97
2023-05-05T08:13:02.964Z,1028.87
2023-05-05T08:14:02.913Z,1028.99
2023-05-05T08:15:02.922Z,1027.92
2023-05-05T08:16:02.941Z,1027.47
2023-05-05T08:17:02.931Z,1027.54
2023-05-05T08:18:02.997Z,1027.67
2023-05-05T08:19:03.037Z,1027.59
2023-05-05T08:20:02.946Z,1026.63
2023-05-05T08:21:02.984Z,1025.65
2023-05-05T08:22:02.948Z,1024.83
2023-05-05T08:23:02.966Z,1024.46
2023-05-05T08:24:02.962Z,1024.00
2023-05-05T08:25:02.976Z,1023.88
2023-05-05T08:26:02.967Z,1022.18
2023-05-05T08:27:02.984Z,1023.59
2023-05-05T08:28:02.982Z,1023.31
2023-05-05T08:29:02.996Z,1022.86
2023-05-05T08:30:03.024Z,1021.25
2023-05-05T08:31:03.095Z,1020.62
2023-05-05T08:32:03.008Z,1019.59
2023-05-05T08:33:03.036Z,1019.54
2023-05-05T08:34:03.030Z,1019.00
2023-05-05T08:35:03.127Z,1018.12
2023-05-05T08:36:03.035Z,1017.67
2023-05-05T08:37:03.051Z,1017.82
2023-05-05T08:38:03.070Z,1018.30
2023-05-05T08:39:03.066Z,1018.81
2023-05-05T08:40:03.072Z,1019.06
2023-05-05T08:41:03.084Z,1018.97
2023-05-05T08:42:03.081Z,1018.94
2023-05-05T08:43:03.094Z,1018.90
2023-05-05T08:44:03.103Z,1018.89
2023-05-05T08:45:03.108Z,1018.81
2023-05-05T08:46:03.124Z,1018.71
2023-05-05T08:47:03.181Z,1018.67
2023-05-05T08:48:03.179Z,1018.59
2023-05-05T08:49:03.147Z,1018.64
2023-05-05T08:50:03.163Z,1018.51
2023-05-05T08:51:05.252Z,1018.48
2023-05-05T08:52:03.169Z,1018.64
2023-05-05T08:53:03.266Z,1018.64
2023-05-05T08:54:03.187Z,1018.66
2023-05-05T08:55:03.190Z,1018.71
2023-05-05T08:56:03.196Z,1018.67
2023-05-05T08:57:03.205Z,1018.62
2023-05-05T08:58:03.225Z,1018.63
2023-05-05T08:59:03.230Z,1018.61
2023-05-05T09:00:03.249Z,1018.56
2023-05-05T09:01:03.265Z,1018.52
2023-05-05T09:02:03.328Z,1018.39
2023-05-05T09:03:03.424Z,1018.44
2023-05-05T09:04:03.281Z,1018.44
2023-05-05T09:05:03.294Z,1018.29
2023-05-05T09:06:03.334Z,1018.17
2023-05-05T09:07:03.413Z,1018.16
2023-05-05T09:08:03.337Z,1018.29
2023-05-05T09:09:03.342Z,1018.33
2023-05-05T09:10:03.351Z,1018.23
2023-05-05T09:11:03.367Z,1018.32
2023-05-05T09:12:03.373Z,1018.30
2023-05-05T09:13:03.429Z,1018.26
2023-05-05T09:14:03.430Z,1018.10
2023-05-05T09:15:03.446Z,1018.17
2023-05-05T09:16:03.426Z,1018.19
2023-05-05T09:17:03.519Z,1018.18
2023-05-05T09:18:03.487Z,1018.18
2023-05-05T09:19:03.473Z,1018.19
2023-05-05T09:20:03.490Z,1018.15
2023-05-05T09:21:03.497Z,1018.15
2023-05-05T09:22:03.511Z,1018.09
2023-05-05T09:23:03.628Z,1018.13
2023-05-05T09:24:08.211Z,1018.17
2023-05-05T09:25:03.553Z,1018.17
2023-05-05T09:26:03.562Z,1018.25
2023-05-05T09:27:03.583Z,1018.20
2023-05-05T09:28:03.592Z,1018.19
2023-05-05T09:29:03.622Z,1018.22
2023-05-05T09:30:03.642Z,1018.26
2023-05-05T09:31:03.680Z,1018.28
2023-05-05T09:32:03.687Z,1018.31
2023-05-05T09:33:03.712Z,1018.32
2023-05-05T09:34:03.685Z,1018.33
2023-05-05T09:35:03.704Z,1018.45
2023-05-05T09:36:03.715Z,1018.41
2023-05-05T09:37:03.743Z,1018.17
2023-05-05T09:38:03.742Z,1018.52
2023-05-05T09:39:03.784Z,1018.36
2023-05-05T09:40:03.786Z,1018.57
2023-05-05T09:41:03.806Z,1018.30
2023-05-05T09:42:03.809Z,1018.65
2023-05-05T09:43:03.826Z,1018.56
2023-05-05T09:44:03.837Z,1018.44
2023-05-05T09:45:03.854Z,1018.41
2023-05-05T09:46:03.887Z,1018.66
2023-05-05T09:47:09.497Z,1018.71
2023-05-05T09:48:03.928Z,1018.72
2023-05-05T09:49:03.929Z,1018.76
2023-05-05T09:50:03.940Z,1018.79
2023-05-05T09:51:03.951Z,1018.79
2023-05-05T09:52:03.982Z,1018.82
2023-05-05T09:53:03.991Z,1018.74
2023-05-05T09:54:04.009Z,1018.62
2023-05-05T09:55:04.197Z,1018.54
2023-05-05T09:56:04.035Z,1018.73
2023-05-05T09:57:04.066Z,1018.66
2023-05-05T09:58:04.110Z,1018.56
2023-05-05T09:59:04.084Z,1018.49
2023-05-05T10:00:04.216Z,1018.80
2023-05-05T10:01:04.135Z,1018.78
2023-05-05T10:02:04.133Z,1018.84
2023-05-05T10:03:04.225Z,1018.88
2023-05-05T10:04:04.162Z,1018.91
2023-05-05T10:05:04.260Z,1018.88
2023-05-05T10:06:04.223Z,1019.03
2023-05-05T10:07:04.225Z,1018.77
2023-05-05T10:08:04.238Z,1018.14
2023-05-05T10:09:04.267Z,1018.58
2023-05-05T10:10:04.276Z,1018.99
2023-05-05T10:11:04.392Z,1019.46
2023-05-05T10:12:04.304Z,1019.61
2023-05-05T10:13:04.391Z,1019.59
2023-05-05T10:14:04.346Z,1019.60
2023-05-05T10:15:04.364Z,1019.45
2023-05-05T10:16:04.457Z,1019.26
2023-05-05T10:17:04.401Z,1019.30
2023-05-05T10:18:08.039Z,1019.50
2023-05-05T10:19:04.435Z,1019.53
2023-05-05T10:20:04.470Z,1019.83
2023-05-05T10:22:22.099Z,1017.90
2023-05-05T10:23:22.137Z,1019.35
2023-05-05T10:24:22.132Z,1018.66
2023-05-05T10:25:22.160Z,1019.27
2023-05-05T10:26:22.284Z,1018.96
2023-05-05T10:27:22.194Z,1019.67
2023-05-05T10:28:22.278Z,1018.64
2023-05-05T10:29:22.239Z,1019.37
2023-05-05T10:30:22.242Z,1019.21
2023-05-05T10:31:26.467Z,1019.10
2023-05-05T10:34:22.337Z,1017.68
2023-05-05T10:35:22.331Z,1017.78
2023-05-05T10:36:22.354Z,1017.52
2023-05-05T10:37:22.372Z,1017.58
2023-05-05T10:38:24.086Z,1017.51
2023-05-05T10:39:22.404Z,1017.63
2023-05-05T10:40:22.435Z,1018.04
2023-05-05T10:41:22.441Z,1018.09
2023-05-05T10:42:22.546Z,1018.71
2023-05-05T10:43:22.473Z,1018.93
2023-05-05T10:44:22.490Z,1018.96
2023-05-05T10:45:22.573Z,1018.90
2023-05-05T10:46:22.582Z,1019.01
2023-05-05T10:47:22.588Z,1018.95
2023-05-05T10:48:22.603Z,1018.85
2023-05-05T10:49:22.571Z,1018.85
2023-05-05T10:50:22.596Z,1018.81
2023-05-05T10:51:35.363Z,1018.74
2023-05-05T10:52:22.620Z,1018.74
2023-05-05T10:53:22.647Z,1018.54
2023-05-05T10:54:22.787Z,1018.41
2023-05-05T10:55:22.685Z,1018.31
2023-05-05T10:56:22.685Z,1018.34
2023-05-05T10:57:22.721Z,1018.29
2023-05-05T10:58:22.752Z,1018.24
2023-05-05T10:59:22.747Z,1018.31
2023-05-05T11:00:22.759Z,1018.23
2023-05-05T11:01:22.812Z,1018.18
2023-05-05T11:02:22.795Z,1018.18
2023-05-05T11:03:22.936Z,1018.17
2023-05-05T11:04:22.825Z,1018.16
2023-05-05T11:05:22.892Z,1018.08
2023-05-05T11:06:22.868Z,1018.02
2023-05-05T11:07:22.894Z,1018.01
2023-05-05T11:08:22.901Z,1017.97
2023-05-05T11:09:22.927Z,1017.96
2023-05-05T11:10:22.963Z,1018.03
2023-05-05T11:11:22.959Z,1018.03
2023-05-05T11:12:22.978Z,1017.87
2023-05-05T11:13:23.071Z,1017.86
2023-05-05T11:14:23.032Z,1017.79
2023-05-05T11:15:23.038Z,1017.78
2023-05-05T11:16:23.089Z,1017.76
2023-05-05T11:17:23.088Z,1017.76
2023-05-05T11:18:23.089Z,1017.76
2023-05-05T11:19:23.111Z,1017.75
2023-05-05T11:20:23.137Z,1017.65
2023-05-05T11:21:23.150Z,1017.63
2023-05-05T11:22:23.164Z,1017.56
2023-05-05T11:23:23.191Z,1017.59
2023-05-05T11:24:23.212Z,1017.57
2023-05-05T11:25:23.229Z,1017.61
2023-05-05T11:26:23.243Z,1017.55
2023-05-05T11:27:23.266Z,1017.61
2023-05-05T11:28:23.293Z,1017.51
2023-05-05T11:29:23.304Z,1017.51
2023-05-05T11:30:23.346Z,1017.51
2023-05-05T11:31:23.400Z,1017.49
2023-05-05T11:32:23.377Z,1017.49
2023-05-05T11:33:23.388Z,1017.46
2023-05-05T11:34:23.410Z,1017.23
2023-05-05T11:35:23.432Z,1017.32
2023-05-05T11:36:23.450Z,1017.10
2023-05-05T11:37:23.575Z,1017.27
2023-05-05T11:38:23.480Z,1017.29
2023-05-05T11:39:23.505Z,1017.21
2023-05-05T11:40:23.526Z,1017.00
2023-05-05T11:41:23.546Z,1016.81
2023-05-05T11:42:23.673Z,1016.88
2023-05-05T11:43:23.584Z,1016.91
2023-05-05T11:44:23.602Z,1016.94
2023-05-05T11:45:23.735Z,1016.95
2023-05-05T11:46:23.850Z,1016.92
2023-05-05T11:47:23.658Z,1016.83
2023-05-05T11:48:23.685Z,1016.72
2023-05-05T11:49:23.695Z,1016.74
2023-05-05T11:50:23.709Z,1016.79
2023-05-05T11:51:23.730Z,1016.72
2023-05-05T11:52:23.741Z,1016.77
2023-05-05T11:53:23.769Z,1016.82
2023-05-05T11:54:23.779Z,1016.77
2023-05-05T11:55:23.794Z,1016.55
2023-05-05T11:56:23.812Z,1016.61
2023-05-05T11:57:23.836Z,1016.57
2023-05-05T11:58:23.845Z,1016.56
2023-05-05T11:59:23.871Z,1016.63
2023-05-05T12:00:23.881Z,1016.68
2023-05-05T12:01:23.895Z,1016.81
2023-05-05T12:02:24.243Z,1016.78
2023-05-05T12:03:24.108Z,1016.82
2023-05-05T12:04:24.002Z,1016.81
2023-05-05T12:05:23.959Z,1016.77
2023-05-05T12:06:23.969Z,1016.66
2023-05-05T12:07:23.986Z,1016.68
2023-05-05T12:08:23.996Z,1016.58
2023-05-05T12:09:24.019Z,1016.73
2023-05-05T12:10:24.032Z,1016.71
2023-05-05T12:11:24.043Z,1016.82